Time,TemperatureF,DewpointF,PressureIn,WindDirection,WindDirectionDegrees,WindSpeedMPH,WindSpeedGustMPH,Humidity,HourlyPrecipIn,Conditions,Clouds,dailyrainin,SolarRadiationWatts/m^2,SoftwareType,DateUTC
2013-01-28 00:06:00,31.1,29.6,29.76,SE,141,2.0,2.0,94,0.00,,,0.00,0,Wunderground v.1.15,2013-01-28 06:06:00,
2013-01-28 00:16:00,31.2,29.7,29.76,SE,141,0.0,0.0,94,0.00,,,0.00,0,Wunderground v.1.15,2013-01-28 06:16:00,
2013-01-28 00:26:00,31.2,29.4,29.75,SE,141,3.0,3.0,93,0.00,,,0.00,0,Wunderground v.1.15,2013-01-28 06:26:00,
2013-01-28 00:36:00,31.2,29.7,29.75,SE,141,0.0,4.0,94,0.00,,,0.00,0,Wunderground v.1.15,2013-01-28 06:36:00,
2013-01-28 00:46:00,31.3,30.0,29.75,SE,141,0.0,2.0,95,0.00,,,0.00,0,Wunderground v.1.15,2013-01-28 06:46:00,
2013-01-28 00:56:00,31.2,30.7,29.75,SE,141,2.0,2.0,98,0.00,,,0.00,0,Wunderground v.1.15,2013-01-28 06:56:00,
2013-01-28 01:01:00,31.2,30.7,29.74,SE,141,2.0,2.0,98,0.00,,,0.00,0,Wunderground v.1.15,2013-01-28 07:01:00,
2013-01-28 01:11:00,31.2,30.7,29.74,SE,141,0.0,0.0,98,0.00,,,0.00,0,Wunderground v.1.15,2013-01-28 07:11:00,
2013-01-28 01:21:00,31.3,30.8,29.75,SE,141,0.0,0.0,98,0.00,,,0.00,0,Wunderground v.1.15,2013-01-28 07:21:00,
2013-01-28 01:31:00,31.3,30.8,29.75,SE,141,0.0,0.0,98,0.00,,,0.00,0,Wunderground v.1.15,2013-01-28 07:31:00,
2013-01-28 01:36:00,31.5,31.0,29.75,SE,141,2.0,2.0,98,0.00,,,0.00,0,Wunderground v.1.15,2013-01-28 07:36:00,
2013-01-28 01:46:00,31.5,31.0,29.75,SE,141,0.0,0.0,98,0.00,,,0.00,0,Wunderground v.1.15,2013-01-28 07:46:00,
2013-01-28 01:56:00,31.6,31.1,29.74,SE,141,0.0,0.0,98,0.00,,,0.00,0,Wunderground v.1.15,2013-01-28 07:56:00,
2013-01-28 02:06:00,31.7,31.2,29.75,SE,141,0.0,0.0,98,0.00,,,0.00,0,Wunderground v.1.15,2013-01-28 08:06:00,
2013-01-28 02:16:00,31.7,30.9,29.74,SE,141,0.0,0.0,97,0.00,,,0.00,0,Wunderground v.1.15,2013-01-28 08:16:00,
2013-01-28 02:26:00,31.7,29.9,29.74,SE,141,0.0,0.0,93,0.00,,,0.00,0,Wunderground v.1.15,2013-01-28 08:26:00,
2013-01-28 02:31:00,31.8,30.0,29.74,SE,141,0.0,0.0,93,0.00,,,0.00,0,Wunderground v.1.15,2013-01-28 08:31:00,
2013-01-28 02:41:00,31.9,30.1,29.73,SE,141,0.0,0.0,93,0.00,,,0.00,0,Wunderground v.1.15,2013-01-28 08:41:00,
2013-01-28 02:51:00,32.0,30.2,29.73,SE,141,0.0,0.0,93,0.00,,,0.00,0,Wunderground v.1.15,2013-01-28 08:51:00,
2013-01-28 03:01:00,32.0,30.2,29.73,SE,141,0.0,0.0,93,0.00,,,0.00,0,Wunderground v.1.15,2013-01-28 09:01:00,
2013-01-28 03:06:00,32.1,30.3,29.73,SE,141,0.0,0.0,93,0.00,,,0.00,0,Wunderground v.1.15,2013-01-28 09:06:00,
2013-01-28 03:16:00,32.1,30.6,29.73,SE,141,0.0,0.0,94,0.00,,,0.00,0,Wunderground v.1.15,2013-01-28 09:16:00,
2013-01-28 03:26:00,32.0,30.2,29.73,SE,141,0.0,0.0,93,0.00,,,0.00,0,Wunderground v.1.15,2013-01-28 09:26:00,
2013-01-28 03:36:00,32.1,30.3,29.73,SE,141,0.0,0.0,93,0.00,,,0.00,0,Wunderground v.1.15,2013-01-28 09:36:00,
2013-01-28 03:46:00,32.1,30.6,29.74,SE,141,0.0,0.0,94,0.00,,,0.00,0,Wunderground v.1.15,2013-01-28 09:46:00,
2013-01-28 03:56:00,32.1,30.3,29.74,SE,141,0.0,0.0,93,0.00,,,0.00,0,Wunderground v.1.15,2013-01-28 09:56:00,
2013-01-28 04:06:00,32.1,30.3,29.73,SE,141,0.0,1.0,93,0.00,,,0.00,0,Wunderground v.1.15,2013-01-28 10:06:00,
2013-01-28 04:16:00,32.0,30.2,29.74,SE,141,0.0,1.0,93,0.00,,,0.00,0,Wunderground v.1.15,2013-01-28 10:16:00,
2013-01-28 04:26:00,31.9,30.1,29.74,SE,141,0.0,0.0,93,0.00,,,0.00,0,Wunderground v.1.15,2013-01-28 10:26:00,
2013-01-28 04:31:00,31.9,30.4,29.74,SE,141,0.0,0.0,94,0.00,,,0.00,0,Wunderground v.1.15,2013-01-28 10:31:00,
2013-01-28 04:41:00,32.0,30.5,29.75,SE,141,0.0,0.0,94,0.00,,,0.00,0,Wunderground v.1.15,2013-01-28 10:41:00,
2013-01-28 04:51:00,31.8,30.3,29.74,SE,141,0.0,0.0,94,0.00,,,0.00,0,Wunderground v.1.15,2013-01-28 10:51:00,
2013-01-28 05:01:00,32.0,30.5,29.75,SE,141,0.0,0.0,94,0.00,,,0.00,0,Wunderground v.1.15,2013-01-28 11:01:00,
2013-01-28 05:06:00,32.1,30.6,29.75,SE,141,2.0,2.0,94,0.00,,,0.00,0,Wunderground v.1.15,2013-01-28 11:06:00,
2013-01-28 05:16:00,32.1,30.6,29.75,SE,141,0.0,2.0,94,0.00,,,0.00,0,Wunderground v.1.15,2013-01-28 11:16:00,
2013-01-28 05:26:00,32.1,30.6,29.76,SE,141,2.0,2.0,94,0.00,,,0.00,0,Wunderground v.1.15,2013-01-28 11:26:00,
2013-01-28 05:31:00,32.1,30.6,29.75,SE,141,2.0,2.0,94,0.00,,,0.00,0,Wunderground v.1.15,2013-01-28 11:31:00,
2013-01-28 05:41:00,32.0,30.5,29.76,SE,141,2.0,2.0,94,0.00,,,0.00,0,Wunderground v.1.15,2013-01-28 11:41:00,
2013-01-28 05:51:00,32.0,30.5,29.76,SE,141,0.0,0.0,94,0.00,,,0.00,0,Wunderground v.1.15,2013-01-28 11:51:00,
2013-01-28 06:01:00,32.0,30.5,29.76,SE,141,1.0,2.0,94,0.00,,,0.00,0,Wunderground v.1.15,2013-01-28 12:01:00,
2013-01-28 06:06:00,32.0,30.5,29.77,SE,141,0.0,2.0,94,0.00,,,0.00,0,Wunderground v.1.15,2013-01-28 12:06:00,
2013-01-28 06:16:00,32.1,30.6,29.77,SE,141,3.0,4.0,94,0.00,,,0.00,0,Wunderground v.1.15,2013-01-28 12:16:00,
2013-01-28 06:26:00,32.1,30.6,29.78,SE,141,4.0,4.0,94,0.00,,,0.00,0,Wunderground v.1.15,2013-01-28 12:26:00,
2013-01-28 06:36:00,32.2,30.7,29.78,SE,141,5.0,5.0,94,0.00,,,0.00,0,Wunderground v.1.15,2013-01-28 12:36:00,
2013-01-28 06:46:00,32.2,30.4,29.80,SE,141,4.0,4.0,93,0.00,,,0.00,0,Wunderground v.1.15,2013-01-28 12:46:00,
2013-01-28 06:56:00,32.0,30.5,29.80,SE,141,5.0,5.0,94,0.00,,,0.00,0,Wunderground v.1.15,2013-01-28 12:56:00,
2013-01-28 07:06:00,32.2,30.7,29.80,SE,141,4.0,4.0,94,0.00,,,0.00,0,Wunderground v.1.15,2013-01-28 13:06:00,
2013-01-28 07:16:00,32.3,30.8,29.80,SE,141,3.0,3.0,94,0.00,,,0.00,0,Wunderground v.1.15,2013-01-28 13:16:00,
2013-01-28 07:21:00,32.5,31.0,29.80,SE,141,4.0,4.0,94,0.00,,,0.00,0,Wunderground v.1.15,2013-01-28 13:21:00,
2013-01-28 07:31:00,32.5,30.7,29.82,SE,141,3.0,3.0,93,0.00,,,0.00,0,Wunderground v.1.15,2013-01-28 13:31:00,
2013-01-28 07:41:00,32.6,30.8,29.82,SE,141,2.0,2.0,93,0.00,,,0.00,0,Wunderground v.1.15,2013-01-28 13:41:00,
2013-01-28 07:51:00,32.8,31.0,29.82,SE,141,1.0,1.0,93,0.00,,,0.00,0,Wunderground v.1.15,2013-01-28 13:51:00,
2013-01-28 08:01:00,33.0,30.9,29.82,SE,141,2.0,2.0,92,0.00,,,0.00,0,Wunderground v.1.15,2013-01-28 14:01:00,
2013-01-28 08:06:00,33.1,31.0,29.82,SE,139,4.0,4.0,92,0.00,,,0.00,0,Wunderground v.1.15,2013-01-28 14:06:00,
2013-01-28 08:16:00,33.2,31.1,29.82,ESE,106,6.0,6.0,92,0.00,,,0.00,0,Wunderground v.1.15,2013-01-28 14:16:00,
2013-01-28 08:21:00,33.3,31.0,29.83,NNE,26,3.0,3.0,91,0.00,,,0.00,0,Wunderground v.1.15,2013-01-28 14:21:00,
2013-01-28 08:31:00,33.5,31.2,29.82,North,10,3.0,3.0,91,0.00,,,0.00,0,Wunderground v.1.15,2013-01-28 14:31:00,
2013-01-28 08:41:00,33.6,31.3,29.83,North,9,4.0,4.0,91,0.00,,,0.00,0,Wunderground v.1.15,2013-01-28 14:41:00,
2013-01-28 08:51:00,33.6,31.3,29.83,North,9,2.0,2.0,91,0.00,,,0.00,0,Wunderground v.1.15,2013-01-28 14:51:00,
2013-01-28 09:01:00,33.8,31.2,29.83,North,6,3.0,3.0,90,0.00,,,0.00,0,Wunderground v.1.15,2013-01-28 15:01:00,
2013-01-28 09:06:00,33.9,31.3,29.83,North,0,4.0,4.0,90,0.00,,,0.00,0,Wunderground v.1.15,2013-01-28 15:06:00,
2013-01-28 09:16:00,34.3,31.4,29.84,North,0,3.0,8.0,89,0.00,,,0.00,0,Wunderground v.1.15,2013-01-28 15:16:00,
2013-01-28 09:26:00,34.4,31.2,29.85,North,0,6.0,6.0,88,0.00,,,0.00,0,Wunderground v.1.15,2013-01-28 15:26:00,
2013-01-28 09:36:00,34.5,31.3,29.85,NW,320,7.0,7.0,88,0.00,,,0.00,0,Wunderground v.1.15,2013-01-28 15:36:00,
2013-01-28 09:46:00,34.8,31.6,29.86,NNW,340,3.0,4.0,88,0.00,,,0.00,0,Wunderground v.1.15,2013-01-28 15:46:00,
2013-01-28 09:51:00,34.9,31.7,29.86,NNW,339,0.0,0.0,88,0.00,,,0.00,0,Wunderground v.1.15,2013-01-28 15:51:00,
2013-01-28 10:01:00,35.2,32.6,29.86,NNW,334,3.0,3.0,90,0.00,,,0.00,0,Wunderground v.1.15,2013-01-28 16:01:00,
2013-01-28 10:06:00,35.3,33.5,29.86,NW,326,3.0,3.0,93,0.00,,,0.00,0,Wunderground v.1.15,2013-01-28 16:06:00,
2013-01-28 10:16:00,35.5,35.0,29.87,NNW,333,1.0,2.0,98,0.00,,,0.00,0,Wunderground v.1.15,2013-01-28 16:16:00,
2013-01-28 10:26:00,35.8,34.8,29.89,NW,318,3.0,3.0,96,0.00,,,0.00,0,Wunderground v.1.15,2013-01-28 16:26:00,
2013-01-28 10:36:00,35.7,34.7,29.88,NNW,342,5.0,5.0,96,0.00,,,0.00,0,Wunderground v.1.15,2013-01-28 16:36:00,
2013-01-28 10:46:00,35.9,34.9,29.88,NNW,345,2.0,2.0,96,0.00,,,0.00,0,Wunderground v.1.15,2013-01-28 16:46:00,
2013-01-28 10:56:00,35.6,34.8,29.88,NW,315,3.0,3.0,97,0.00,,,0.00,0,Wunderground v.1.15,2013-01-28 16:56:00,
2013-01-28 11:06:00,35.7,34.9,29.89,NW,309,4.0,8.0,97,0.00,,,0.00,0,Wunderground v.1.15,2013-01-28 17:06:00,
2013-01-28 11:16:00,36.4,36.1,29.88,NNW,327,2.0,3.0,99,0.00,,,0.00,0,Wunderground v.1.15,2013-01-28 17:16:00,
2013-01-28 11:26:00,36.9,36.1,29.88,NNW,327,1.0,1.0,97,0.00,,,0.00,0,Wunderground v.1.15,2013-01-28 17:26:00,
2013-01-28 11:36:00,36.6,35.6,29.87,NNW,328,3.0,3.0,96,0.00,,,0.00,0,Wunderground v.1.15,2013-01-28 17:36:00,
2013-01-28 11:46:00,36.4,35.6,29.87,NNW,334,3.0,3.0,97,0.00,,,0.00,0,Wunderground v.1.15,2013-01-28 17:46:00,
2013-01-28 11:56:00,36.3,35.3,29.86,NNE,14,4.0,4.0,96,0.00,,,0.00,0,Wunderground v.1.15,2013-01-28 17:56:00,
2013-01-28 12:06:00,35.7,34.4,29.86,North,5,4.0,4.0,95,0.00,,,0.00,0,Wunderground v.1.15,2013-01-28 18:06:00,
2013-01-28 12:16:00,35.4,34.4,29.85,North,356,5.0,5.0,96,0.00,,,0.00,0,Wunderground v.1.15,2013-01-28 18:16:00,
2013-01-28 12:21:00,35.5,34.5,29.85,North,0,2.0,2.0,96,0.00,,,0.00,0,Wunderground v.1.15,2013-01-28 18:21:00,
2013-01-28 12:31:00,35.8,34.8,29.86,NNW,335,1.0,1.0,96,0.00,,,0.00,0,Wunderground v.1.15,2013-01-28 18:31:00,
2013-01-28 12:41:00,36.1,35.1,29.85,NW,323,3.0,3.0,96,0.00,,,0.00,0,Wunderground v.1.15,2013-01-28 18:41:00,
2013-01-28 12:51:00,36.3,35.0,29.86,NNW,335,1.0,1.0,95,0.00,,,0.00,0,Wunderground v.1.15,2013-01-28 18:51:00,
2013-01-28 13:01:00,36.3,35.3,29.86,NW,304,2.0,2.0,96,0.00,,,0.00,0,Wunderground v.1.15,2013-01-28 19:01:00,
2013-01-28 13:06:00,36.4,35.4,29.86,NW,304,2.0,2.0,96,0.00,,,0.00,0,Wunderground v.1.15,2013-01-28 19:06:00,
2013-01-28 13:16:00,36.5,35.5,29.85,NW,304,0.0,2.0,96,0.00,,,0.00,0,Wunderground v.1.15,2013-01-28 19:16:00,
2013-01-28 13:26:00,36.5,35.2,29.85,NW,304,0.0,2.0,95,0.00,,,0.00,0,Wunderground v.1.15,2013-01-28 19:26:00,
2013-01-28 13:36:00,36.5,34.9,29.85,NW,304,3.0,3.0,94,0.00,,,0.00,0,Wunderground v.1.15,2013-01-28 19:36:00,
2013-01-28 13:46:00,36.4,35.1,29.85,WNW,301,2.0,2.0,95,0.00,,,0.00,0,Wunderground v.1.15,2013-01-28 19:46:00,
2013-01-28 13:56:00,36.5,34.9,29.85,WNW,301,0.0,0.0,94,0.00,,,0.00,0,Wunderground v.1.15,2013-01-28 19:56:00,
2013-01-28 14:01:00,36.6,35.0,29.85,WNW,301,1.0,1.0,94,0.00,,,0.00,0,Wunderground v.1.15,2013-01-28 20:01:00,
2013-01-28 14:11:00,36.7,35.1,29.85,WNW,301,0.0,0.0,94,0.00,,,0.00,0,Wunderground v.1.15,2013-01-28 20:11:00,
2013-01-28 14:21:00,37.3,35.2,29.84,WNW,301,1.0,1.0,92,0.00,,,0.00,0,Wunderground v.1.15,2013-01-28 20:21:00,
2013-01-28 14:31:00,37.4,35.0,29.84,WNW,301,0.0,0.0,91,0.00,,,0.00,0,Wunderground v.1.15,2013-01-28 20:31:00,
2013-01-28 14:36:00,37.2,34.5,29.85,WNW,301,0.0,0.0,90,0.00,,,0.00,0,Wunderground v.1.15,2013-01-28 20:36:00,
2013-01-28 14:46:00,37.0,34.3,29.86,WNW,301,0.0,0.0,90,0.00,,,0.00,0,Wunderground v.1.15,2013-01-28 20:46:00,
2013-01-28 14:56:00,36.5,33.6,29.86,WNW,301,0.0,0.0,89,0.00,,,0.00,0,Wunderground v.1.15,2013-01-28 20:56:00,
2013-01-28 15:06:00,36.2,33.3,29.86,SW,228,5.0,5.0,89,0.00,,,0.00,0,Wunderground v.1.15,2013-01-28 21:06:00,
2013-01-28 15:11:00,36.0,33.4,29.86,South,186,3.0,3.0,90,0.00,,,0.00,0,Wunderground v.1.15,2013-01-28 21:11:00,
2013-01-28 15:21:00,35.7,32.8,29.86,South,181,4.0,4.0,89,0.00,,,0.00,0,Wunderground v.1.15,2013-01-28 21:21:00,
2013-01-28 15:31:00,35.7,33.1,29.86,SSE,162,4.0,4.0,90,0.00,,,0.00,0,Wunderground v.1.15,2013-01-28 21:31:00,
2013-01-28 15:36:00,35.7,33.1,29.87,SE,145,6.0,6.0,90,0.00,,,0.00,0,Wunderground v.1.15,2013-01-28 21:36:00,
2013-01-28 15:46:00,35.3,32.7,29.87,SE,146,8.0,8.0,90,0.00,,,0.00,0,Wunderground v.1.15,2013-01-28 21:46:00,
2013-01-28 15:56:00,35.0,32.6,29.88,SSE,160,4.0,4.0,91,0.00,,,0.00,0,Wunderground v.1.15,2013-01-28 21:56:00,
2013-01-28 16:06:00,34.6,32.2,29.88,SE,143,6.0,6.0,91,0.00,,,0.00,0,Wunderground v.1.15,2013-01-28 22:06:00,
2013-01-28 16:16:00,34.6,32.5,29.87,SE,132,3.0,5.0,92,0.00,,,0.00,0,Wunderground v.1.15,2013-01-28 22:16:00,
2013-01-28 16:26:00,34.5,32.4,29.88,SE,145,5.0,5.0,92,0.00,,,0.00,0,Wunderground v.1.15,2013-01-28 22:26:00,
2013-01-28 16:31:00,34.4,32.3,29.88,SE,144,3.0,3.0,92,0.00,,,0.00,0,Wunderground v.1.15,2013-01-28 22:31:00,
2013-01-28 16:41:00,34.4,32.3,29.86,ESE,122,3.0,3.0,92,0.00,,,0.00,0,Wunderground v.1.15,2013-01-28 22:41:00,
2013-01-28 16:51:00,34.2,32.1,29.86,ESE,103,3.0,3.0,92,0.00,,,0.00,0,Wunderground v.1.15,2013-01-28 22:51:00,
2013-01-28 17:01:00,34.1,32.0,29.85,ESE,104,2.0,2.0,92,0.00,,,0.00,0,Wunderground v.1.15,2013-01-28 23:01:00,
2013-01-28 17:06:00,34.0,31.9,29.86,ESE,104,0.0,2.0,92,0.00,,,0.00,0,Wunderground v.1.15,2013-01-28 23:06:00,
2013-01-28 17:16:00,33.9,32.1,29.85,ESE,104,1.0,2.0,93,0.00,,,0.00,0,Wunderground v.1.15,2013-01-28 23:16:00,
2013-01-28 17:26:00,33.8,32.0,29.84,East,99,3.0,3.0,93,0.00,,,0.00,0,Wunderground v.1.15,2013-01-28 23:26:00,
2013-01-28 17:31:00,33.8,32.0,29.84,East,99,0.0,0.0,93,0.00,,,0.00,0,Wunderground v.1.15,2013-01-28 23:31:00,
2013-01-28 17:41:00,33.6,32.1,29.84,ESE,107,1.0,1.0,94,0.00,,,0.00,0,Wunderground v.1.15,2013-01-28 23:41:00,
2013-01-28 17:51:00,33.6,31.8,29.84,ESE,109,2.0,2.0,93,0.00,,,0.00,0,Wunderground v.1.15,2013-01-28 23:51:00,
2013-01-28 18:01:00,33.6,32.1,29.85,ESE,113,2.0,2.0,94,0.00,,,0.00,0,Wunderground v.1.15,2013-01-29 00:01:00,
2013-01-28 18:11:00,33.5,32.0,29.84,ESE,113,3.0,3.0,94,0.00,,,0.00,0,Wunderground v.1.15,2013-01-29 00:11:00,
2013-01-28 18:16:00,33.5,32.0,29.83,ESE,113,4.0,4.0,94,0.00,,,0.00,0,Wunderground v.1.15,2013-01-29 00:16:00,
2013-01-28 18:26:00,33.3,31.8,29.83,ESE,106,2.0,3.0,94,0.00,,,0.00,0,Wunderground v.1.15,2013-01-29 00:26:00,
2013-01-28 18:36:00,33.0,31.5,29.83,ESE,103,4.0,4.0,94,0.00,,,0.00,0,Wunderground v.1.15,2013-01-29 00:36:00,
2013-01-28 18:46:00,32.5,31.0,29.83,SSE,150,6.0,6.0,94,0.00,,,0.00,0,Wunderground v.1.15,2013-01-29 00:46:00,
2013-01-28 18:56:00,32.5,31.0,29.84,SSE,160,2.0,2.0,94,0.00,,,0.00,0,Wunderground v.1.15,2013-01-29 00:56:00,
2013-01-28 19:01:00,32.3,30.8,29.84,SSE,160,4.0,4.0,94,0.00,,,0.00,0,Wunderground v.1.15,2013-01-29 01:01:00,
2013-01-28 19:11:00,31.7,30.2,29.84,SSE,149,3.0,3.0,94,0.00,,,0.00,0,Wunderground v.1.15,2013-01-29 01:11:00,
2013-01-28 19:21:00,31.4,30.1,29.83,SE,128,5.0,5.0,95,0.00,,,0.00,0,Wunderground v.1.15,2013-01-29 01:21:00,
2013-01-28 19:31:00,31.1,29.6,29.82,SE,128,1.0,1.0,94,0.00,,,0.00,0,Wunderground v.1.15,2013-01-29 01:31:00,
2013-01-28 19:36:00,30.9,29.6,29.82,SE,128,1.0,1.0,95,0.00,,,0.00,0,Wunderground v.1.15,2013-01-29 01:36:00,
2013-01-28 19:46:00,30.7,29.4,29.82,SE,127,4.0,4.0,95,0.00,,,0.00,0,Wunderground v.1.15,2013-01-29 01:46:00,
2013-01-28 19:56:00,30.7,29.4,29.83,SE,128,3.0,3.0,95,0.00,,,0.00,0,Wunderground v.1.15,2013-01-29 01:56:00,
2013-01-28 20:06:00,30.9,29.6,29.82,SE,124,3.0,3.0,95,0.00,,,0.00,0,Wunderground v.1.15,2013-01-29 02:06:00,
2013-01-28 20:16:00,30.6,29.3,29.82,SE,124,0.0,2.0,95,0.00,,,0.00,0,Wunderground v.1.15,2013-01-29 02:16:00,
2013-01-28 20:26:00,30.4,29.1,29.81,SE,130,3.0,3.0,95,0.00,,,0.00,0,Wunderground v.1.15,2013-01-29 02:26:00,
2013-01-28 20:31:00,30.3,29.0,29.80,ESE,119,0.0,0.0,95,0.00,,,0.00,0,Wunderground v.1.15,2013-01-29 02:31:00,
2013-01-28 20:41:00,30.0,28.7,29.82,SSE,150,6.0,6.0,95,0.00,,,0.00,0,Wunderground v.1.15,2013-01-29 02:41:00,
2013-01-28 20:51:00,29.9,28.6,29.81,SSE,149,6.0,6.0,95,0.00,,,0.00,0,Wunderground v.1.15,2013-01-29 02:51:00,
2013-01-28 21:01:00,29.9,28.6,29.80,SE,130,5.0,5.0,95,0.00,,,0.00,0,Wunderground v.1.15,2013-01-29 03:01:00,
2013-01-28 21:06:00,30.0,28.7,29.80,ESE,118,4.0,5.0,95,0.00,,,0.00,0,Wunderground v.1.15,2013-01-29 03:06:00,
2013-01-28 21:16:00,30.6,29.6,29.78,ESE,113,9.0,9.0,96,0.00,,,0.00,0,Wunderground v.1.15,2013-01-29 03:16:00,
2013-01-28 21:26:00,31.3,30.3,29.78,ESE,108,4.0,6.0,96,0.00,,,0.00,0,Wunderground v.1.15,2013-01-29 03:26:00,
2013-01-28 21:36:00,31.7,30.4,29.76,ESE,122,1.0,4.0,95,0.00,,,0.00,0,Wunderground v.1.15,2013-01-29 03:36:00,
2013-01-28 21:46:00,31.9,30.6,29.76,East,100,5.0,5.0,95,0.00,,,0.00,0,Wunderground v.1.15,2013-01-29 03:46:00,
2013-01-28 21:56:00,32.0,30.5,29.77,SE,134,4.0,9.0,94,0.00,,,0.00,0,Wunderground v.1.15,2013-01-29 03:56:00,
2013-01-28 22:06:00,32.4,30.9,29.76,ESE,116,3.0,5.0,94,0.00,,,0.00,0,Wunderground v.1.15,2013-01-29 04:06:00,
2013-01-28 22:16:00,32.6,31.1,29.75,ESE,116,8.0,8.0,94,0.00,,,0.00,0,Wunderground v.1.15,2013-01-29 04:16:00,
2013-01-28 22:26:00,32.8,31.0,29.74,SE,137,5.0,7.0,93,0.00,,,0.00,0,Wunderground v.1.15,2013-01-29 04:26:00,
2013-01-28 22:36:00,33.0,31.2,29.72,ESE,123,8.0,8.0,93,0.00,,,0.00,0,Wunderground v.1.15,2013-01-29 04:36:00,
2013-01-28 22:46:00,33.1,31.0,29.72,SE,131,2.0,4.0,92,0.00,,,0.00,0,Wunderground v.1.15,2013-01-29 04:46:00,
2013-01-28 22:56:00,33.2,31.1,29.71,SSE,151,4.0,9.0,92,0.00,,,0.00,0,Wunderground v.1.15,2013-01-29 04:56:00,
2013-01-28 23:01:00,33.2,31.1,29.71,SE,136,4.0,7.0,92,0.00,,,0.00,0,Wunderground v.1.15,2013-01-29 05:01:00,
2013-01-28 23:06:00,33.3,31.2,29.70,ESE,108,3.0,7.0,92,0.00,,,0.00,0,Wunderground v.1.15,2013-01-29 05:06:00,
2013-01-28 23:16:00,33.5,31.2,29.69,SE,131,3.0,4.0,91,0.00,,,0.00,0,Wunderground v.1.15,2013-01-29 05:16:00,
2013-01-28 23:26:00,33.6,31.5,29.68,SE,128,2.0,4.0,92,0.00,,,0.00,0,Wunderground v.1.15,2013-01-29 05:26:00,
2013-01-28 23:31:00,33.6,31.5,29.67,SE,128,5.0,5.0,92,0.00,,,0.00,0,Wunderground v.1.15,2013-01-29 05:31:00,
2013-01-28 23:41:00,33.7,31.6,29.67,SE,139,3.0,3.0,92,0.00,,,0.00,0,Wunderground v.1.15,2013-01-29 05:41:00,
2013-01-28 23:46:00,33.7,31.4,29.67,ESE,115,4.0,4.0,91,0.00,,,0.00,0,Wunderground v.1.15,2013-01-29 05:46:00,
2013-01-28 23:56:00,33.8,31.5,29.66,SE,124,5.0,6.0,91,0.00,,,0.00,0,Wunderground v.1.15,2013-01-29 05:56:00,